KN60

Garrison Airport

Garrison, North Dakota, USA
METAR KN60 181952Z AUTO 11006KT M18/M22 A3030 RMK AO1 SLP313 P0001 T11831222
Observed Flight Rules
Jan-18 @ 19:52 UTC (14 minutes ago)
Wind
110° at 6 knots
Temperatures Readings Precipitation
Current -18°C / -0°F
Dewpoint -22°C / -8°F
Humidity 71%
Altimeter 30.3" Hg
Pressure 1031.3 hPa
Elevation 582
Current Rain 0.01
METAR KN60 181952Z AUTO 11006KT M18/M22 A3030 RMK AO1 SLP313 P0001 T11831222
Observed Flight Rules
Jan-18 @ 19:52 UTC
(14 minutes ago)
Wind
110° at 6 knots
Temperature Dewpoint
-18°C / -0°F -22°C / -8°F
Humidity Altimeter Pressure
71% 30.3" Hg 1031.3 hPa
Current Rain
0.01